Terminal Aerodrome Forecast
Issued by NWS

Home | Current Version | Previous Version | Text Only | Print | Product List | Glossary Off
Versions: 1 2 3 4 5 6 7 8 9 10 11 12 13 14 15 16 17

000
FTUS43 KMPX 271500 AAA
TAFAXN
TAF AMD
KAXN 271537Z 2716/2812 30009KT P6SM -SHRA OVC070
     FM271800 29013G19KT 6SM -SHRA SCT050 BKN080
     FM272200 28008KT P6SM BKN060
     FM280900 28011G19KT P6SM BKN100=

USA.gov is the U.S. government's official web portal to all federal, state and local government web resources and services.